Check out our new BloomSky Weather System.

Active alerts


No alerts


Thunder radar  blitzortung!


Rain radar more information rain snow radar


Visit our other weather sites:

Template documentation
and downloads

And another site



Weather Underground History page Text

Daily Summary for December 5, 2017 Units:  Metric    English   Both
« Previous Day
Next Day »
Daily Weekly Monthly Yearly Custom
  High: Low: Average:
Temperature: -17.8 °C 12.2 °C 16.6 °C
Dew Point: -17.8 °C 4.5 °C 14.1 °C
Humidity: Humidity % 57 % 86 %
Wind Speed: 0 km/h 0 km/h 5 km/h
Wind Gust: 0 km/h - -
Wind:- - SSW
Pressure: 0 hPa 1014.4 hPa -
Precipitation: 1.02 mm    
Historical Graphs
 
 
Tabular Data for December 5, 2017
Time Temperature Dew Point Pressure Wind Wind Speed Wind Gust Humidity Rainfall Rate (Hourly)
-17.8 °C -17.8 °C 0 hPa Calm     Humidity % 0 mm
00:03 21.6 °C 21.4 °C 1014.4 hPa SE 1.6 km/h 9.7 km/h 99 % 0 mm
00:08 21.6 °C 21.4 °C 1014.4 hPa SSW 1.6 km/h 9.7 km/h 99 % 0 mm
00:13 21.6 °C 21.4 °C 1014.4 hPa SSW 4.8 km/h 9.7 km/h 99 % 0 mm
00:18 21.7 °C 21.5 °C 1014.4 hPa SSE 1.6 km/h 8 km/h 99 % 0 mm
00:23 21.7 °C 21.5 °C 1014.8 hPa SSE 3.2 km/h 6.4 km/h 99 % 0 mm
00:28 21.6 °C 21.4 °C 1014.8 hPa South 1.6 km/h 6.4 km/h 99 % 0 mm
00:33 21.7 °C 21.5 °C 1014.4 hPa SE 1.6 km/h 4.8 km/h 99 % 0 mm
00:38 21.7 °C 21.5 °C 1014.4 hPa SE 1.6 km/h 6.4 km/h 99 % 0 mm
00:43 21.7 °C 21.5 °C 1014.4 hPa South 1.6 km/h 8 km/h 99 % 0 mm
00:48 21.7 °C 21.5 °C 1014.4 hPa SSW 1.6 km/h 8 km/h 99 % 0 mm
00:53 21.7 °C 21.5 °C 1014.8 hPa SSE 3.2 km/h 8 km/h 99 % 0 mm
00:58 21.7 °C 21.5 °C 1014.4 hPa SSW 4.8 km/h 6.4 km/h 99 % 0 mm
01:03 21.7 °C 21.5 °C 1014.4 hPa South 3.2 km/h 6.4 km/h 99 % 0 mm
01:08 21.7 °C 21.5 °C 1014.4 hPa SSW 4.8 km/h 6.4 km/h 99 % 0 mm
01:13 21.7 °C 21.5 °C 1014.4 hPa SSW 6.4 km/h 9.7 km/h 99 % 0.25 mm
01:19 21.8 °C 21.6 °C 1014.4 hPa South 1.6 km/h 9.7 km/h 99 % 0.25 mm
01:24 21.7 °C 21.4 °C 1014.4 hPa SSE 3.2 km/h 9.7 km/h 98 % 0.25 mm
01:29 21.7 °C 21.4 °C 1014.4 hPa SE 3.2 km/h 9.7 km/h 98 % 0.25 mm
01:34 21.7 °C 21.4 °C 1014.8 hPa SSW 1.6 km/h 11.3 km/h 98 % 0.25 mm
01:39 21.7 °C 21.4 °C 1014.8 hPa SSE 6.4 km/h 11.3 km/h 98 % 0.25 mm
01:44 21.7 °C 21.4 °C 1014.4 hPa South 9.7 km/h 11.3 km/h 98 % 0.25 mm
01:49 21.7 °C 21.4 °C 1014.4 hPa SSE 1.6 km/h 9.7 km/h 98 % 0.25 mm
01:54 21.6 °C 21.3 °C 1014.8 hPa SSE 6.4 km/h 9.7 km/h 98 % 0.25 mm
01:59 21.6 °C 21.3 °C 1014.8 hPa South 1.6 km/h 9.7 km/h 98 % 0.25 mm
02:04 21.6 °C 21.3 °C 1014.8 hPa South 1.6 km/h 6.4 km/h 98 % 0.25 mm
02:09 21.5 °C 21.2 °C 1014.8 hPa Calm   6.4 km/h 98 % 0 mm
02:14 21.4 °C 21.1 °C 1014.8 hPa Calm   4.8 km/h 98 % 0 mm
02:19 21.4 °C 21.1 °C 1015.1 hPa South 1.6 km/h 3.2 km/h 98 % 0 mm
02:24 21.3 °C 21 °C 1015.1 hPa SE 1.6 km/h 3.2 km/h 98 % 0 mm
02:29 21.3 °C 21 °C 1015.1 hPa SSE 1.6 km/h 3.2 km/h 98 % 0 mm
02:34 21.3 °C 21 °C 1015.1 hPa South 1.6 km/h 3.2 km/h 98 % 0 mm
02:39 21.2 °C 20.9 °C 1014.8 hPa Calm   3.2 km/h 98 % 0 mm
02:44 21.2 °C 20.9 °C 1015.1 hPa Calm   3.2 km/h 98 % 0 mm
02:49 21.1 °C 20.8 °C 1014.8 hPa SSE 1.6 km/h 3.2 km/h 98 % 0 mm
02:54 21.1 °C 20.9 °C 1014.8 hPa South 1.6 km/h 3.2 km/h 99 % 0 mm
02:59 21.1 °C 20.9 °C 1014.8 hPa SE 3.2 km/h 3.2 km/h 99 % 0 mm
03:04 21 °C 20.8 °C 1014.8 hPa South 1.6 km/h 3.2 km/h 99 % 0 mm
03:09 21.1 °C 20.9 °C 1014.8 hPa SSE 1.6 km/h 3.2 km/h 99 % 0 mm
03:14 21.1 °C 20.9 °C 1014.8 hPa South 4.8 km/h 6.4 km/h 99 % 0 mm
03:19 21.1 °C 20.9 °C 1014.8 hPa Calm   6.4 km/h 99 % 0 mm
03:24 21.1 °C 20.9 °C 1014.8 hPa South 3.2 km/h 6.4 km/h 99 % 0 mm
03:29 21.1 °C 20.9 °C 1014.8 hPa South 1.6 km/h 6.4 km/h 99 % 0 mm
03:34 21.1 °C 20.9 °C 1014.8 hPa South 1.6 km/h 6.4 km/h 99 % 0 mm
03:39 21.1 °C 20.9 °C 1014.8 hPa SSE 1.6 km/h 4.8 km/h 99 % 0 mm
03:44 21 °C 20.8 °C 1014.8 hPa SSE 1.6 km/h 4.8 km/h 99 % 0 mm
03:49 21 °C 20.8 °C 1014.8 hPa SSE 1.6 km/h 4.8 km/h 99 % 0 mm
03:54 21 °C 20.8 °C 1014.8 hPa South 1.6 km/h 4.8 km/h 99 % 0 mm
03:59 20.9 °C 20.7 °C 1014.8 hPa South 1.6 km/h 3.2 km/h 99 % 0 mm
04:04 20.9 °C 20.7 °C 1014.8 hPa SSW 3.2 km/h 4.8 km/h 99 % 0 mm
04:09 20.9 °C 20.7 °C 1014.4 hPa South 1.6 km/h 4.8 km/h 99 % 0 mm
04:14 20.9 °C 20.7 °C 1014.8 hPa SSW 1.6 km/h 6.4 km/h 99 % 0 mm
04:19 20.9 °C 20.7 °C 1014.8 hPa South 3.2 km/h 6.4 km/h 99 % 0 mm
04:24 20.9 °C 20.7 °C 1014.8 hPa South 1.6 km/h 6.4 km/h 99 % 0 mm
04:29 20.9 °C 20.7 °C 1014.8 hPa SSW 1.6 km/h 4.8 km/h 99 % 0 mm
04:34 20.9 °C 20.7 °C 1014.8 hPa SE 1.6 km/h 4.8 km/h 99 % 0 mm
04:40 20.8 °C 20.6 °C 1014.8 hPa Calm   4.8 km/h 99 % 0 mm
04:45 20.8 °C 20.6 °C 1014.8 hPa Calm   4.8 km/h 99 % 0 mm
04:50 20.7 °C 20.5 °C 1014.8 hPa Calm   1.6 km/h 99 % 0 mm
04:55 20.6 °C 20.4 °C 1014.8 hPa Calm   1.6 km/h 99 % 0 mm
05:00 20.4 °C 20.2 °C 1014.8 hPa Calm     99 % 0 mm
05:05 20.3 °C 20.1 °C 1014.8 hPa Calm     99 % 0 mm
05:10 20.2 °C 20 °C 1014.8 hPa Calm     99 % 0 mm
05:15 20.2 °C 20 °C 1015.1 hPa Calm   1.6 km/h 99 % 0 mm
05:20 20.2 °C 20 °C 1015.1 hPa SE 1.6 km/h 1.6 km/h 99 % 0 mm
05:25 20.1 °C 19.9 °C 1015.5 hPa NNW 1.6 km/h 1.6 km/h 99 % 0 mm
05:30 19.9 °C 19.7 °C 1015.5 hPa NNW 1.6 km/h 3.2 km/h 99 % 0 mm
05:31 19.9 °C 19.7 °C 1015.5 hPa NNW 1.6 km/h 3.2 km/h 99 % 0 mm
05:36 19.9 °C 19.7 °C 1015.5 hPa Calm   3.2 km/h 99 % 0 mm
05:41 19.9 °C 19.7 °C 1015.5 hPa Calm   3.2 km/h 99 % 0 mm
05:46 19.9 °C 19.7 °C 1015.8 hPa Calm   3.2 km/h 99 % 0 mm
05:51 20.1 °C 20.1 °C 1015.8 hPa NNW 1.6 km/h 1.6 km/h 100 % 0 mm
05:56 20.2 °C 20.2 °C 1015.8 hPa Calm   1.6 km/h 100 % 0 mm
06:01 20.2 °C 20.2 °C 1015.8 hPa Calm   1.6 km/h 100 % 0 mm
06:06 20.3 °C 20.3 °C 1015.8 hPa Calm   1.6 km/h 100 % 0 mm
06:11 20.3 °C 20.3 °C 1016.1 hPa NNE 3.2 km/h 3.2 km/h 100 % 0 mm
06:16 20.4 °C 20.4 °C 1016.1 hPa North 1.6 km/h 3.2 km/h 100 % 0 mm
06:21 20.4 °C 20.4 °C 1016.1 hPa Calm   3.2 km/h 100 % 0 mm
06:26 20.5 °C 20.5 °C 1016.5 hPa North 1.6 km/h 3.2 km/h 100 % 0 mm
06:31 20.5 °C 20.5 °C 1016.5 hPa Calm   3.2 km/h 100 % 0 mm
06:36 20.6 °C 20.6 °C 1016.5 hPa Calm   3.2 km/h 100 % 0 mm
06:41 20.6 °C 20.6 °C 1016.5 hPa Calm   3.2 km/h 100 % 0 mm
06:46 20.6 °C 20.6 °C 1016.5 hPa Calm   3.2 km/h 100 % 0 mm
06:51 20.6 °C 20.6 °C 1016.5 hPa Calm   1.6 km/h 100 % 0 mm
06:56 20.5 °C 20.5 °C 1016.5 hPa Calm   1.6 km/h 100 % 0 mm
07:01 20.5 °C 20.5 °C 1016.8 hPa Calm   1.6 km/h 100 % 0 mm
07:06 20.5 °C 20.5 °C 1016.8 hPa Calm   1.6 km/h 100 % 0 mm
07:11 20.4 °C 20.4 °C 1017.2 hPa Calm   1.6 km/h 100 % 0 mm
07:16 20.4 °C 20.4 °C 1016.8 hPa Calm   1.6 km/h 100 % 0 mm
07:21 20.4 °C 20.4 °C 1017.2 hPa Calm   1.6 km/h 100 % 0 mm
07:26 20.3 °C 20.1 °C 1017.2 hPa Calm   1.6 km/h 99 % 0 mm
07:36 20.3 °C 20.3 °C 1017.2 hPa SSW 1.6 km/h 3.2 km/h 100 % 0 mm
07:41 20.4 °C 20.4 °C 1017.2 hPa Calm   4.8 km/h 100 % 0 mm
07:46 20.5 °C 20.5 °C 1017.2 hPa Calm   4.8 km/h 100 % 0 mm
07:51 20.7 °C 20.7 °C 1017.2 hPa Calm   4.8 km/h 100 % 0 mm
07:56 20.9 °C 20.9 °C 1017.2 hPa Calm   3.2 km/h 100 % 0 mm
08:01 21.2 °C 21.2 °C 1017.2 hPa Calm   3.2 km/h 100 % 0 mm
08:06 21.3 °C 21.3 °C 1017.2 hPa Calm     100 % 0 mm
08:11 21.3 °C 21.3 °C 1017.2 hPa Calm   1.6 km/h 100 % 0 mm
08:16 21.7 °C 21.7 °C 1017.5 hPa Calm   1.6 km/h 100 % 0 mm
08:26 22.4 °C 22.4 °C 1017.5 hPa Calm   1.6 km/h 100 % 0 mm
08:31 22.4 °C 22.4 °C 1017.5 hPa Calm     100 % 0 mm
08:41 22.5 °C 22.5 °C 1017.5 hPa Calm   1.6 km/h 100 % 0 mm
08:46 22.4 °C 22.4 °C 1017.8 hPa NNW 1.6 km/h 3.2 km/h 100 % 0 mm
08:51 22.3 °C 22.1 °C 1017.8 hPa Calm   3.2 km/h 99 % 0 mm
08:56 22.3 °C 22.1 °C 1017.8 hPa Calm   3.2 km/h 99 % 0 mm
09:01 22.2 °C 22 °C 1017.8 hPa NW 1.6 km/h 3.2 km/h 99 % 0 mm
09:06 22.2 °C 22 °C 1018.2 hPa Calm   3.2 km/h 99 % 0 mm
09:11 22.2 °C 22 °C 1018.2 hPa Calm   3.2 km/h 99 % 0 mm
09:16 22.5 °C 22.5 °C 1018.2 hPa NNW 1.6 km/h 3.2 km/h 100 % 0 mm
09:21 22.6 °C 22.4 °C 1018.5 hPa Calm   3.2 km/h 99 % 0 mm
09:26 22.9 °C 22.9 °C 1018.5 hPa NNW 1.6 km/h 4.8 km/h 100 % 0 mm
09:36 21.8 °C 20.3 °C 1018.8 hPa NW 16.1 km/h 19.3 km/h 91 % 0 mm
09:42 20.1 °C 18.4 °C 1019.2 hPa NNE 3.2 km/h 19.3 km/h 90 % 0 mm
09:47 18.8 °C 17.3 °C 1018.8 hPa North 8 km/h 20.9 km/h 91 % 0 mm
09:52 18.2 °C 17 °C 1019.5 hPa WNW 14.5 km/h 20.9 km/h 93 % 0 mm
09:57 17.5 °C 16.4 °C 1019.5 hPa NNW 9.7 km/h 27.4 km/h 93 % 0 mm
10:02 17.1 °C 16.1 °C 1019.5 hPa NNW 12.9 km/h 27.4 km/h 94 % 0 mm
10:07 16.9 °C 16.1 °C 1019.9 hPa WNW 6.4 km/h 27.4 km/h 95 % 0.51 mm
10:12 16.7 °C 16.1 °C 1019.9 hPa NW 11.3 km/h 20.9 km/h 96 % 0.51 mm
10:17 16.6 °C 16.1 °C 1019.9 hPa North 8 km/h 19.3 km/h 97 % 0.51 mm
10:22 16.6 °C 16.1 °C 1019.9 hPa WNW 9.7 km/h 19.3 km/h 97 % 0.51 mm
10:27 16.4 °C 15.9 °C 1019.9 hPa WNW 11.3 km/h 19.3 km/h 97 % 0.76 mm
10:32 16.2 °C 15.7 °C 1019.9 hPa NNW 4.8 km/h 17.7 km/h 97 % 0.76 mm
10:37 16.1 °C 15.6 °C 1019.9 hPa NNW 6.4 km/h 17.7 km/h 97 % 0.76 mm
10:42 15.9 °C 15.4 °C 1019.9 hPa NNW 11.3 km/h 17.7 km/h 97 % 0.76 mm
10:47 15.9 °C 15.4 °C 1019.5 hPa NW 11.3 km/h 17.7 km/h 97 % 0.76 mm
10:52 15.8 °C 15.3 °C 1019.2 hPa NW 8 km/h 16.1 km/h 97 % 0.76 mm
10:57 15.8 °C 15.3 °C 1019.2 hPa North 8 km/h 16.1 km/h 97 % 0.76 mm
11:02 15.6 °C 15.1 °C 1019.5 hPa North 11.3 km/h 19.3 km/h 97 % 0.76 mm
11:07 15.6 °C 15.1 °C 1019.5 hPa NNW 9.7 km/h 24.1 km/h 97 % 0.25 mm
11:12 15.4 °C 14.9 °C 1019.5 hPa NNW 6.4 km/h 24.1 km/h 97 % 0.25 mm
11:17 15.4 °C 14.9 °C 1019.9 hPa NW 8 km/h 24.1 km/h 97 % 0.25 mm
11:22 15.3 °C 14.8 °C 1019.9 hPa North 8 km/h 17.7 km/h 97 % 0 mm
11:27 15.3 °C 14.8 °C 1019.9 hPa North 6.4 km/h 17.7 km/h 97 % 0 mm
11:32 15.3 °C 14.8 °C 1019.9 hPa NNW 6.4 km/h 17.7 km/h 97 % 0 mm
11:37 15.2 °C 14.7 °C 1019.9 hPa NW 6.4 km/h 16.1 km/h 97 % 0 mm
11:47 15.3 °C 14.8 °C 1019.9 hPa NNW 9.7 km/h 17.7 km/h 97 % 0 mm
11:52 15.3 °C 14.8 °C 1019.9 hPa NNW 6.4 km/h 17.7 km/h 97 % 0 mm
11:57 15.3 °C 14.7 °C 1019.9 hPa NW 17.7 km/h 17.7 km/h 96 % 0 mm
12:02 15.2 °C 14.6 °C 1019.9 hPa North 12.9 km/h 22.5 km/h 96 % 0 mm
12:07 15.1 °C 14.3 °C 1019.9 hPa NNW 9.7 km/h 22.5 km/h 95 % 0 mm
12:12 15.1 °C 14.3 °C 1019.5 hPa NW 9.7 km/h 22.5 km/h 95 % 0 mm
12:17 15.1 °C 14.3 °C 1019.5 hPa NNW 11.3 km/h 19.3 km/h 95 % 0 mm
12:22 15.2 °C 14.4 °C 1019.5 hPa North 6.4 km/h 19.3 km/h 95 % 0 mm
12:27 15.2 °C 14.2 °C 1019.5 hPa NNW 8 km/h 19.3 km/h 94 % 0 mm
12:32 15.1 °C 14.1 °C 1019.5 hPa NNW 11.3 km/h 27.4 km/h 94 % 0 mm
12:37 15.1 °C 14 °C 1019.9 hPa NNW 4.8 km/h 27.4 km/h 93 % 0 mm
12:42 15.1 °C 14 °C 1019.9 hPa NNE 11.3 km/h 27.4 km/h 93 % 0 mm
12:47 14.9 °C 13.6 °C 1019.9 hPa NW 8 km/h 24.1 km/h 92 % 0 mm
12:52 15 °C 13.9 °C 1019.9 hPa NNW 11.3 km/h 24.1 km/h 93 % 0 mm
12:57 15.1 °C 13.8 °C 1019.9 hPa North 12.9 km/h 24.1 km/h 92 % 0 mm
13:02 15.1 °C 13.8 °C 1019.9 hPa North 14.5 km/h 22.5 km/h 92 % 0 mm
13:07 15.1 °C 13.8 °C 1019.9 hPa NNW 11.3 km/h 22.5 km/h 92 % 0 mm
13:12 14.9 °C 13.4 °C 1019.9 hPa North 14.5 km/h 19.3 km/h 91 % 0 mm
13:17 14.8 °C 13.5 °C 1019.9 hPa NNW 8 km/h 19.3 km/h 92 % 0 mm
13:22 14.8 °C 13.5 °C 1019.9 hPa NNW 8 km/h 19.3 km/h 92 % 0 mm
13:27 14.7 °C 13.2 °C 1019.9 hPa WSW 9.7 km/h 19.3 km/h 91 % 0 mm
13:32 14.6 °C 13 °C 1019.9 hPa North 16.1 km/h 19.3 km/h 90 % 0 mm
13:37 14.6 °C 13 °C 1019.9 hPa WNW 4.8 km/h 24.1 km/h 90 % 0 mm
13:42 14.6 °C 13 °C 1019.9 hPa NNW 6.4 km/h 24.1 km/h 90 % 0 mm
13:47 14.6 °C 13 °C 1019.9 hPa North 6.4 km/h 24.1 km/h 90 % 0 mm
13:52 14.6 °C 13 °C 1019.9 hPa WNW 8 km/h 19.3 km/h 90 % 0 mm
13:57 14.5 °C 12.7 °C 1020.2 hPa NNW 9.7 km/h 20.9 km/h 89 % 0 mm
14:02 14.4 °C 12.6 °C 1019.9 hPa NNW 6.4 km/h 27.4 km/h 89 % 0 mm
14:07 14.3 °C 12.5 °C 1019.9 hPa NNE 9.7 km/h 27.4 km/h 89 % 0 mm
14:12 14.3 °C 12.5 °C 1019.9 hPa NNE 11.3 km/h 27.4 km/h 89 % 0 mm
14:17 14.3 °C 12.5 °C 1019.9 hPa NW 8 km/h 24.1 km/h 89 % 0 mm
14:22 14.2 °C 12.2 °C 1020.2 hPa NNW 12.9 km/h 24.1 km/h 88 % 0 mm
14:27 14.3 °C 12.3 °C 1020.2 hPa NNW 1.6 km/h 19.3 km/h 88 % 0 mm
14:33 14.3 °C 12.2 °C 1020.2 hPa NW 11.3 km/h 19.3 km/h 87 % 0 mm
14:38 14.3 °C 12.2 °C 1020.2 hPa NE 4.8 km/h 22.5 km/h 87 % 0 mm
14:43 14.3 °C 12.2 °C 1020.5 hPa North 17.7 km/h 22.5 km/h 87 % 0 mm
14:48 14.2 °C 12.1 °C 1020.5 hPa NW 6.4 km/h 22.5 km/h 87 % 0 mm
14:53 14.2 °C 12.1 °C 1020.5 hPa North 16.1 km/h 17.7 km/h 87 % 0 mm
14:58 14.2 °C 11.9 °C 1020.5 hPa NE 4.8 km/h 25.7 km/h 86 % 0 mm
15:03 14.1 °C 11.8 °C 1020.5 hPa NW 8 km/h 25.7 km/h 86 % 0 mm
15:08 14.1 °C 11.8 °C 1020.5 hPa North 11.3 km/h 25.7 km/h 86 % 0 mm
15:13 14.1 °C 11.8 °C 1020.5 hPa NNW 4.8 km/h 25.7 km/h 86 % 0 mm
15:18 14.1 °C 11.8 °C 1020.5 hPa NNW 9.7 km/h 20.9 km/h 86 % 0 mm
15:23 14 °C 11.7 °C 1020.5 hPa North 6.4 km/h 20.9 km/h 86 % 0 mm
15:28 14 °C 11.5 °C 1020.5 hPa NNE 17.7 km/h 20.9 km/h 85 % 0 mm
15:33 14 °C 11.5 °C 1020.5 hPa WNW 4.8 km/h 22.5 km/h 85 % 0 mm
15:34 14 °C 11.5 °C 1020.5 hPa North 9.7 km/h 22.5 km/h 85 % 0 mm
15:39 14 °C 11.5 °C 1020.5 hPa NNE 14.5 km/h 22.5 km/h 85 % 0 mm
15:44 13.9 °C 11.4 °C 1020.9 hPa NW 4.8 km/h 22.5 km/h 85 % 0 mm
15:49 13.9 °C 11.2 °C 1020.9 hPa NNW 6.4 km/h 22.5 km/h 84 % 0 mm
15:54 13.9 °C 11.2 °C 1020.9 hPa WNW 4.8 km/h 27.4 km/h 84 % 0 mm
15:59 13.9 °C 11.2 °C 1020.9 hPa NW 9.7 km/h 27.4 km/h 84 % 0 mm
16:00 13.9 °C 11.2 °C 1020.9 hPa NNW 8 km/h 27.4 km/h 84 % 0 mm
16:05 13.9 °C 11.1 °C 1020.9 hPa NNE 4.8 km/h 20.9 km/h 83 % 0 mm
16:10 13.9 °C 10.5 °C 1020.9 hPa NE 6.4 km/h 22.5 km/h 80 % 0 mm
16:15 13.9 °C 10.3 °C 1021.2 hPa West 8 km/h 22.5 km/h 79 % 0 mm
16:20 13.9 °C 10.3 °C 1021.2 hPa NNW 3.2 km/h 22.5 km/h 79 % 0 mm
16:25 13.8 °C 9.6 °C 1021.2 hPa NE 9.7 km/h 22.5 km/h 76 % 0 mm
16:30 13.8 °C 9.6 °C 1021.2 hPa NNE 4.8 km/h 22.5 km/h 76 % 0 mm
16:35 13.8 °C 9.6 °C 1021.2 hPa NW 6.4 km/h 22.5 km/h 76 % 0 mm
16:40 13.7 °C 9.3 °C 1021.2 hPa North 19.3 km/h 25.7 km/h 75 % 0 mm
16:45 13.7 °C 8.9 °C 1021.6 hPa NE 11.3 km/h 25.7 km/h 73 % 0 mm
16:50 13.7 °C 8.7 °C 1021.6 hPa North 14.5 km/h 25.7 km/h 72 % 0 mm
16:55 13.6 °C 8.4 °C 1021.6 hPa ENE 11.3 km/h 22.5 km/h 71 % 0 mm
17:00 13.6 °C 8.2 °C 1021.6 hPa South 4.8 km/h 25.7 km/h 70 % 0 mm
17:05 13.5 °C 8.3 °C 1021.6 hPa NNW 1.6 km/h 25.7 km/h 71 % 0 mm
17:10 13.4 °C 8.2 °C 1021.6 hPa NE 14.5 km/h 25.7 km/h 71 % 0 mm
17:15 13.4 °C 8.2 °C 1021.6 hPa WNW 8 km/h 24.1 km/h 71 % 0 mm
17:20 13.3 °C 8.2 °C 1021.6 hPa NNE 9.7 km/h 24.1 km/h 71 % 0 mm
17:25 13.3 °C 8.2 °C 1021.9 hPa NE 1.6 km/h 20.9 km/h 71 % 0 mm
17:30 13.3 °C 8.2 °C 1021.9 hPa NW 1.6 km/h 20.9 km/h 71 % 0 mm
17:35 13.3 °C 8.2 °C 1021.9 hPa NE 8 km/h 20.9 km/h 71 % 0 mm
17:40 13.3 °C 8.2 °C 1022.2 hPa NW 8 km/h 20.9 km/h 71 % 0 mm
17:45 13.3 °C 8.4 °C 1022.2 hPa NW 3.2 km/h 20.9 km/h 72 % 0 mm
17:50 13.3 °C 8.4 °C 1022.2 hPa NE 8 km/h 14.5 km/h 72 % 0 mm
17:55 13.3 °C 8.4 °C 1022.2 hPa North 6.4 km/h 19.3 km/h 72 % 0 mm
18:00 13.3 °C 8.6 °C 1022.2 hPa NNE 8 km/h 19.3 km/h 73 % 0 mm
18:05 13.3 °C 8.8 °C 1022.2 hPa WNW 4.8 km/h 19.3 km/h 74 % 0 mm
18:10 13.2 °C 8.9 °C 1022.2 hPa NNE 3.2 km/h 17.7 km/h 75 % 0 mm
18:15 13.2 °C 8.9 °C 1022.2 hPa West 1.6 km/h 17.7 km/h 75 % 0 mm
18:20 13.2 °C 9.1 °C 1022.2 hPa NNW 3.2 km/h 17.7 km/h 76 % 0 mm
18:25 13.2 °C 9.1 °C 1022.2 hPa East 3.2 km/h 16.1 km/h 76 % 0 mm
18:30 13.2 °C 9.3 °C 1022.2 hPa NNW 3.2 km/h 16.1 km/h 77 % 0 mm
18:32 13.2 °C 9.1 °C 1022.2 hPa NE 1.6 km/h 16.1 km/h 76 % 0 mm
18:37 13.2 °C 9.3 °C 1022.6 hPa WNW 3.2 km/h 14.5 km/h 77 % 0 mm
18:42 13.2 °C 9.1 °C 1022.2 hPa NW 8 km/h 14.5 km/h 76 % 0 mm
18:47 13.2 °C 8.9 °C 1022.2 hPa NW 6.4 km/h 14.5 km/h 75 % 0 mm
18:53 13.2 °C 8.9 °C 1022.6 hPa ESE 6.4 km/h 19.3 km/h 75 % 0 mm
19:03 13.2 °C 7 °C 1022.9 hPa NNE 11.3 km/h 24.1 km/h 66 % 0 mm
19:08 13.2 °C 7 °C 1022.9 hPa Calm   24.1 km/h 66 % 0 mm
19:13 13.2 °C 6.8 °C 1022.9 hPa NNW 6.4 km/h 24.1 km/h 65 % 0 mm
19:18 13.2 °C 6.8 °C 1023.2 hPa NW 3.2 km/h 22.5 km/h 65 % 0 mm
19:23 13.2 °C 6.5 °C 1022.9 hPa WNW 4.8 km/h 19.3 km/h 64 % 0 mm
19:28 13.1 °C 6.4 °C 1022.9 hPa NW 4.8 km/h 19.3 km/h 64 % 0 mm
19:30 13.1 °C 6 °C 1022.9 hPa North 4.8 km/h 19.3 km/h 62 % 0 mm
19:36 13.1 °C 5.5 °C 1022.9 hPa North 8 km/h 22.5 km/h 60 % 0 mm
19:41 13 °C 5.4 °C 1022.9 hPa North 9.7 km/h 22.5 km/h 60 % 0 mm
19:46 12.9 °C 5.1 °C 1022.9 hPa South 3.2 km/h 22.5 km/h 59 % 0 mm
19:51 12.9 °C 5.1 °C 1022.9 hPa North 9.7 km/h 17.7 km/h 59 % 0 mm
19:56 12.9 °C 4.8 °C 1023.2 hPa North 8 km/h 17.7 km/h 58 % 0 mm
20:01 12.8 °C 4.5 °C 1022.9 hPa NE 3.2 km/h 22.5 km/h 57 % 0 mm
20:06 12.8 °C 4.7 °C 1022.9 hPa NNW 4.8 km/h 22.5 km/h 58 % 0 mm
20:16 12.8 °C 4.7 °C 1022.9 hPa NNW 9.7 km/h 17.7 km/h 58 % 0 mm
20:21 12.8 °C 4.7 °C 1022.9 hPa NNW 6.4 km/h 17.7 km/h 58 % 0 mm
20:26 12.8 °C 4.7 °C 1023.2 hPa NNE 4.8 km/h 17.7 km/h 58 % 0 mm
20:27 12.8 °C 4.7 °C 1023.2 hPa NNW 1.6 km/h 17.7 km/h 58 % 0 mm
20:32 12.8 °C 4.7 °C 1023.2 hPa NNE 8 km/h 17.7 km/h 58 % 0 mm
20:37 12.7 °C 4.6 °C 1023.2 hPa NE 8 km/h 17.7 km/h 58 % 0 mm
20:42 12.7 °C 4.6 °C 1023.2 hPa NW 8 km/h 14.5 km/h 58 % 0 mm
20:52 12.7 °C 4.6 °C 1022.9 hPa ESE 4.8 km/h 17.7 km/h 58 % 0 mm
20:57 12.6 °C 4.6 °C 1022.9 hPa ENE 3.2 km/h 17.7 km/h 58 % 0 mm
21:02 12.6 °C 4.6 °C 1023.2 hPa NNW 4.8 km/h 17.7 km/h 58 % 0 mm
21:12 12.6 °C 4.8 °C 1023.2 hPa North 11.3 km/h 17.7 km/h 59 % 0 mm
21:17 12.6 °C 4.6 °C 1022.9 hPa West 6.4 km/h 16.1 km/h 58 % 0 mm
21:22 12.6 °C 4.8 °C 1022.6 hPa North 1.6 km/h 17.7 km/h 59 % 0 mm
21:27 12.6 °C 4.8 °C 1022.9 hPa NNE 4.8 km/h 17.7 km/h 59 % 0 mm
21:32 12.5 °C 4.7 °C 1022.9 hPa NNW 1.6 km/h 17.7 km/h 59 % 0 mm
21:37 12.4 °C 4.9 °C 1022.9 hPa North 1.6 km/h 14.5 km/h 60 % 0 mm
21:42 12.4 °C 5.1 °C 1023.2 hPa North 4.8 km/h 14.5 km/h 61 % 0 mm
21:47 12.4 °C 5.1 °C 1023.2 hPa North 6.4 km/h 17.7 km/h 61 % 0 mm
21:52 12.4 °C 4.9 °C 1023.2 hPa North 8 km/h 17.7 km/h 60 % 0 mm
21:57 12.4 °C 5.1 °C 1023.2 hPa NE 4.8 km/h 17.7 km/h 61 % 0 mm
22:02 12.4 °C 5.1 °C 1023.2 hPa ENE 8 km/h 14.5 km/h 61 % 0 mm
22:07 12.4 °C 5.1 °C 1023.2 hPa North 16.1 km/h 16.1 km/h 61 % 0 mm
22:12 12.4 °C 5.1 °C 1023.2 hPa ENE 3.2 km/h 25.7 km/h 61 % 0 mm
22:17 12.4 °C 5.1 °C 1023.2 hPa Calm   25.7 km/h 61 % 0 mm
22:22 12.3 °C 5 °C 1023.2 hPa ENE 4.8 km/h 25.7 km/h 61 % 0 mm
22:27 12.3 °C 5.2 °C 1023.2 hPa ENE 8 km/h 19.3 km/h 62 % 0 mm
22:32 12.3 °C 5.2 °C 1023.2 hPa Calm   19.3 km/h 62 % 0 mm
22:37 12.3 °C 5.2 °C 1023.2 hPa NE 4.8 km/h 19.3 km/h 62 % 0 mm
22:42 12.3 °C 5.2 °C 1023.2 hPa NE 3.2 km/h 14.5 km/h 62 % 0 mm
22:47 12.3 °C 5.5 °C 1023.2 hPa NNW 1.6 km/h 14.5 km/h 63 % 0 mm
22:52 12.3 °C 5.2 °C 1023.2 hPa North 6.4 km/h 14.5 km/h 62 % 0 mm
22:54 12.3 °C 5.2 °C 1023.2 hPa ENE 1.6 km/h 14.5 km/h 62 % 0 mm
22:59 12.2 °C 5.1 °C 1023.6 hPa NNW 3.2 km/h 12.9 km/h 62 % 0 mm
23:04 12.2 °C 5.1 °C 1023.6 hPa NNE 4.8 km/h 12.9 km/h 62 % 0 mm
23:09 12.3 °C 5.2 °C 1023.6 hPa NNW 1.6 km/h 12.9 km/h 62 % 0 mm
23:14 12.2 °C 5.1 °C 1023.2 hPa WNW 3.2 km/h 12.9 km/h 62 % 0 mm
23:19 12.2 °C 5.1 °C 1023.2 hPa NNW 3.2 km/h 12.9 km/h 62 % 0 mm
23:24 12.2 °C 5.1 °C 1022.9 hPa NW 3.2 km/h 12.9 km/h 62 % 0 mm
23:29 12.2 °C 5.1 °C 1022.9 hPa WNW 8 km/h 12.9 km/h 62 % 0 mm
23:34 12.2 °C 5.1 °C 1022.9 hPa East 1.6 km/h 14.5 km/h 62 % 0 mm
23:39 12.2 °C 5.4 °C 1023.2 hPa NE 3.2 km/h 16.1 km/h 63 % 0 mm
23:44 12.2 °C 5.1 °C 1023.2 hPa Calm   16.1 km/h 62 % 0 mm
23:49 12.2 °C 4.9 °C 1023.6 hPa WNW 1.6 km/h 16.1 km/h 61 % 0 mm
23:54 12.2 °C 5.1 °C 1023.2 hPa NW 3.2 km/h 12.9 km/h 62 % 0 mm
23:59 12.2 °C 4.9 °C 1023.6 hPa NNE 4.8 km/h 12.9 km/h 61 % 0 mm
Spring, Texas: Villages of Bridgestone
Compliments of Weather Underground - 2.75 mb

Script developed by  Jim McMurry - jmcmurry@mwt.net Adapted for the template by  Wim van der Kuil - Leuven-Template.eu

You find our weather info also at:

UK Metoffice

WeatherCloud

Weather Underground

Mid-South Weather Network

AWEKAS

Citizen Weather Observer Program (CWOP)

HAMweather, WeatherForYou, PWS Weather

Equipment we use:

Weather-station
Davis Vantage Vue

Weather-program
Meteohub

Weather-server
Debian 7.9 x86 (Guest)

Provider
DreamHost

Davis Vantage Vue

Meteohub

Debian 7.9 x86 (Guest)

DreamHost